Time;durP1;ratioP1;P1;durP2;ratioP2;P2;SDS_P1;SDS_P2;PMS_P1;PMS_P2;Temp;Humidity;BMP_temperature;BMP_pressure;BME280_temperature;BME280_humidity;BME280_pressure;Samples;Min_cycle;Max_cycle;Signal;HPM_P1;HPM_P2
2021/11/07 00:00:12;;;;;;;15.30;9.30;;;1.80;99.90;;;;;;5067343;28;20642;-49
2021/11/07 00:02:53;;;;;;;16.30;9.63;;;1.50;99.90;;;;;;5071564;28;20450;-49
2021/11/07 00:05:27;;;;;;;14.97;9.23;;;1.50;99.90;;;;;;5071429;28;20843;-49
2021/11/07 00:08:07;;;;;;;16.90;9.70;;;1.50;99.90;;;;;;5062240;22;20520;-52
2021/11/07 00:10:39;;;;;;;15.67;10.30;;;1.60;99.90;;;;;;5038896;28;20479;-52
2021/11/07 00:13:15;;;;;;;17.03;10.13;;;1.70;99.90;;;;;;5051594;28;20447;-52
2021/11/07 00:15:42;;;;;;;16.50;9.93;;;1.80;99.90;;;;;;5051682;28;20450;-53
2021/11/07 00:18:12;;;;;;;14.00;8.83;;;1.70;99.90;;;;;;5051250;28;20478;-52
2021/11/07 00:20:45;;;;;;;17.00;10.27;;;1.60;99.90;;;;;;5050406;28;20566;-52
2021/11/07 00:23:23;;;;;;;17.63;9.93;;;1.40;99.90;;;;;;5051731;28;20474;-52
2021/11/07 00:25:52;;;;;;;16.40;9.73;;;1.20;99.90;;;;;;5043589;28;20447;-52
2021/11/07 00:28:29;;;;;;;15.87;9.57;;;1.40;99.90;;;;;;5051412;28;20844;-52
2021/11/07 00:31:08;;;;;;;15.20;10.23;;;1.40;99.90;;;;;;5054876;28;20509;-52
2021/11/07 00:33:51;;;;;;;15.77;9.47;;;1.40;99.90;;;;;;5055182;28;20458;-52
2021/11/07 00:36:25;;;;;;;13.47;8.07;;;1.40;99.90;;;;;;5055016;28;21016;-52
2021/11/07 00:38:58;;;;;;;14.77;9.03;;;1.50;99.90;;;;;;5050182;28;20981;-52
2021/11/07 00:41:32;;;;;;;15.43;8.80;;;1.50;99.90;;;;;;5034979;28;20585;-52
2021/11/07 00:44:03;;;;;;;17.30;9.37;;;1.50;99.90;;;;;;5050532;28;20839;-52
2021/11/07 00:46:35;;;;;;;14.43;8.77;;;1.50;99.90;;;;;;5055099;28;20501;-52
2021/11/07 00:49:06;;;;;;;18.17;9.70;;;1.40;99.90;;;;;;5054905;28;20466;-52
2021/11/07 00:51:36;;;;;;;14.03;9.03;;;1.40;99.90;;;;;;5054814;28;20927;-52
2021/11/07 00:54:14;;;;;;;16.23;9.33;;;1.40;99.90;;;;;;5054953;28;20446;-52
2021/11/07 00:56:45;;;;;;;21.67;11.93;;;1.40;99.90;;;;;;5049607;28;20474;-52
2021/11/07 00:59:34;;;;;;;24.23;13.17;;;1.30;99.90;;;;;;5054314;28;21006;-52
2021/11/07 01:02:14;;;;;;;25.53;12.83;;;1.20;99.90;;;;;;5054148;28;20483;-52
2021/11/07 01:04:45;;;;;;;24.80;12.90;;;1.20;99.90;;;;;;5054872;28;20968;-52
2021/11/07 01:07:12;;;;;;;22.90;12.90;;;1.10;99.90;;;;;;5054706;28;20491;-52
2021/11/07 01:09:40;;;;;;;27.00;14.43;;;1.20;99.90;;;;;;5054755;28;20450;-55
2021/11/07 01:12:08;;;;;;;25.90;13.47;;;1.20;99.90;;;;;;5049077;28;20502;-52
2021/11/07 01:14:35;;;;;;;23.77;13.07;;;1.20;99.90;;;;;;5043856;28;20501;-52
2021/11/07 01:17:03;;;;;;;24.63;13.73;;;1.20;99.90;;;;;;5054443;28;20537;-52
2021/11/07 01:19:30;;;;;;;20.87;12.23;;;1.20;99.90;;;;;;5054078;28;20455;-52
2021/11/07 01:21:59;;;;;;;21.50;11.83;;;1.20;99.90;;;;;;5054171;28;20531;-52
2021/11/07 01:24:31;;;;;;;26.67;12.70;;;1.20;99.90;;;;;;5054139;28;20889;-52
2021/11/07 01:27:10;;;;;;;21.83;11.23;;;1.10;99.90;;;;;;5054173;28;20475;-52
2021/11/07 01:29:40;;;;;;;19.30;10.90;;;1.20;99.90;;;;;;5042451;28;20463;-52
2021/11/07 01:32:08;;;;;;;18.67;10.70;;;1.20;99.90;;;;;;5042258;28;20498;-52
2021/11/07 01:34:47;;;;;;;17.50;10.00;;;1.20;99.90;;;;;;5054102;28;20524;-52
2021/11/07 01:37:17;;;;;;;14.93;9.97;;;1.30;99.90;;;;;;5054225;28;20561;-52
2021/11/07 01:39:50;;;;;;;21.97;10.60;;;1.30;99.90;;;;;;5052269;28;20482;-52
2021/11/07 01:42:25;;;;;;;16.10;10.27;;;1.30;99.90;;;;;;5053976;28;20489;-52
2021/11/07 01:44:55;;;;;;;14.63;9.40;;;1.30;99.90;;;;;;5052463;28;20498;-52
2021/11/07 01:47:26;;;;;;;18.30;9.67;;;1.10;99.90;;;;;;5053596;28;20485;-52
2021/11/07 01:49:54;;;;;;;13.93;8.70;;;1.10;99.90;;;;;;5053789;28;20489;-52
2021/11/07 01:52:22;;;;;;;13.03;7.90;;;1.00;99.90;;;;;;5053762;28;20443;-52
2021/11/07 01:54:51;;;;;;;13.80;7.60;;;1.10;99.90;;;;;;5052188;28;20542;-52
2021/11/07 01:57:25;;;;;;;13.13;7.80;;;1.20;99.90;;;;;;5051794;28;20516;-52
2021/11/07 01:59:54;;;;;;;13.80;8.67;;;1.20;99.90;;;;;;5051472;28;21009;-52
2021/11/07 02:02:27;;;;;;;14.17;8.53;;;1.20;99.90;;;;;;5053149;28;20486;-52
2021/11/07 02:04:54;;;;;;;12.30;7.90;;;1.10;99.90;;;;;;5033932;28;20888;-52
2021/11/07 02:07:24;;;;;;;14.30;8.90;;;1.00;99.90;;;;;;5041307;28;20545;-52
2021/11/07 02:09:52;;;;;;;16.33;8.43;;;0.90;99.90;;;;;;5053460;28;20450;-52
2021/11/07 02:12:20;;;;;;;22.40;10.17;;;0.80;99.90;;;;;;5052739;28;20889;-52
2021/11/07 02:14:47;;;;;;;17.67;9.10;;;0.80;99.90;;;;;;5053042;28;20865;-52
2021/11/07 02:17:15;;;;;;;16.33;9.73;;;0.70;99.90;;;;;;5052947;28;20531;-52
2021/11/07 02:19:44;;;;;;;14.23;8.80;;;0.70;99.90;;;;;;5053686;28;20462;-51
2021/11/07 02:22:12;;;;;;;11.43;8.03;;;0.70;99.90;;;;;;5052366;28;20531;-52
2021/11/07 02:24:41;;;;;;;12.70;7.80;;;0.80;99.90;;;;;;5053156;28;20460;-52
2021/11/07 02:27:09;;;;;;;14.20;7.60;;;0.80;99.90;;;;;;5047357;28;20471;-52
2021/11/07 02:29:38;;;;;;;12.53;7.50;;;0.70;99.90;;;;;;5046718;28;20462;-51
2021/11/07 02:32:06;;;;;;;16.73;7.50;;;0.60;99.90;;;;;;5053037;28;20454;-52
2021/11/07 02:34:34;;;;;;;14.33;7.50;;;0.50;99.90;;;;;;5053189;28;21006;-52
2021/11/07 02:37:02;;;;;;;12.73;7.47;;;0.40;99.90;;;;;;5043637;28;20901;-52
2021/11/07 02:39:31;;;;;;;12.10;6.50;;;0.50;99.90;;;;;;5042556;28;20455;-52
2021/11/07 02:41:58;;;;;;;12.47;7.63;;;0.50;99.90;;;;;;5052253;28;21103;-52
2021/11/07 02:44:34;;;;;;;12.23;6.40;;;0.80;99.90;;;;;;5052177;28;20448;-52
2021/11/07 02:47:02;;;;;;;13.50;7.60;;;0.60;99.90;;;;;;5052817;28;20530;-52
2021/11/07 02:49:29;;;;;;;12.07;6.30;;;0.60;99.90;;;;;;5052540;28;20511;-52
2021/11/07 02:51:58;;;;;;;9.27;5.67;;;0.70;99.90;;;;;;5051924;28;20933;-52
2021/11/07 02:54:26;;;;;;;7.63;4.93;;;0.60;99.90;;;;;;5052498;28;20974;-52
2021/11/07 02:56:56;;;;;;;10.80;5.27;;;0.50;99.90;;;;;;5048541;28;20477;-52
2021/11/07 02:59:27;;;;;;;10.73;4.77;;;0.40;99.90;;;;;;5051613;28;20451;-52
2021/11/07 03:01:56;;;;;;;7.80;4.67;;;0.40;99.90;;;;;;5046665;28;20539;-52
2021/11/07 03:04:24;;;;;;;8.13;4.20;;;0.40;99.90;;;;;;5052577;28;20803;-52
2021/11/07 03:06:51;;;;;;;6.07;3.70;;;0.50;99.90;;;;;;5052388;28;20482;-52
2021/11/07 03:09:20;;;;;;;10.73;4.03;;;0.60;99.90;;;;;;5051631;28;20453;-52
2021/11/07 03:11:48;;;;;;;6.73;3.90;;;0.70;99.90;;;;;;5052230;28;20508;-52
2021/11/07 03:14:19;;;;;;;5.40;3.30;;;0.80;99.90;;;;;;5052487;28;20445;-52
2021/11/07 03:16:47;;;;;;;6.50;2.73;;;0.90;99.90;;;;;;5051891;28;20561;-52
2021/11/07 03:19:15;;;;;;;2.73;2.20;;;1.00;99.90;;;;;;5051727;28;21026;-52
2021/11/07 03:21:43;;;;;;;4.40;3.03;;;1.10;99.90;;;;;;5051910;28;20481;-51
2021/11/07 03:24:13;;;;;;;2.87;2.17;;;1.30;99.90;;;;;;5052026;28;20459;-52
2021/11/07 03:26:40;;;;;;;2.57;1.83;;;1.10;99.90;;;;;;5052407;28;20474;-52
2021/11/07 03:29:08;;;;;;;2.57;2.37;;;1.10;99.90;;;;;;5052434;28;20455;-51
2021/11/07 03:31:45;;;;;;;3.10;2.07;;;1.40;99.90;;;;;;5051900;28;20546;-52
2021/11/07 03:34:18;;;;;;;4.50;2.07;;;1.40;99.90;;;;;;5045523;28;20551;-51
2021/11/07 03:36:47;;;;;;;3.10;2.10;;;1.40;99.90;;;;;;5052224;28;20665;-52
2021/11/07 03:39:15;;;;;;;3.40;3.00;;;1.50;99.90;;;;;;5052026;28;20454;-52
2021/11/07 03:41:44;;;;;;;2.77;2.47;;;1.50;99.90;;;;;;5051266;28;20493;-52
2021/11/07 03:44:12;;;;;;;2.53;2.10;;;1.50;99.90;;;;;;5052038;28;21066;-51
2021/11/07 03:46:44;;;;;;;4.00;2.43;;;1.50;99.90;;;;;;5051657;28;20474;-52
2021/11/07 03:49:11;;;;;;;3.47;2.33;;;1.50;99.90;;;;;;5049722;28;20496;-52
2021/11/07 03:51:39;;;;;;;4.83;2.63;;;1.40;99.90;;;;;;5032654;28;20483;-52
2021/11/07 03:54:09;;;;;;;3.37;2.30;;;1.40;99.90;;;;;;5047920;28;20505;-52
2021/11/07 03:56:36;;;;;;;2.97;2.10;;;1.40;99.90;;;;;;5060690;28;20484;-52
2021/11/07 03:59:03;;;;;;;3.30;2.50;;;1.40;99.90;;;;;;5069724;28;20449;-52
2021/11/07 04:01:30;;;;;;;3.33;3.00;;;1.50;99.90;;;;;;5068645;28;20488;-52
2021/11/07 04:03:59;;;;;;;3.87;2.87;;;1.30;99.90;;;;;;5057364;28;20454;-52
2021/11/07 04:06:26;;;;;;;3.50;2.90;;;1.10;99.90;;;;;;5051169;28;20539;-52
2021/11/07 04:08:54;;;;;;;3.60;2.67;;;1.10;99.90;;;;;;5051320;28;20952;-52
2021/11/07 04:11:21;;;;;;;3.13;2.83;;;1.20;99.90;;;;;;5051022;28;20486;-52
2021/11/07 04:13:48;;;;;;;3.97;2.10;;;1.10;99.90;;;;;;5051668;28;20980;-52
2021/11/07 04:16:16;;;;;;;2.87;2.20;;;1.00;99.90;;;;;;5051653;28;20474;-52
2021/11/07 04:18:45;;;;;;;2.70;1.73;;;0.90;99.90;;;;;;5050977;28;20471;-52
2021/11/07 04:21:17;;;;;;;3.77;2.17;;;0.70;99.90;;;;;;5047705;28;20577;-52
2021/11/07 04:23:45;;;;;;;4.27;2.80;;;0.70;99.90;;;;;;5051615;28;20448;-52
2021/11/07 04:26:12;;;;;;;4.27;2.67;;;0.80;99.90;;;;;;5051500;28;20466;-52
2021/11/07 04:28:39;;;;;;;4.70;2.87;;;0.70;99.90;;;;;;5048078;28;20521;-52
2021/11/07 04:31:06;;;;;;;3.40;2.60;;;1.00;99.90;;;;;;5047369;28;21033;-52
2021/11/07 04:33:34;;;;;;;3.03;2.37;;;0.70;99.90;;;;;;5046373;28;20505;-51
2021/11/07 04:36:01;;;;;;;3.57;2.53;;;0.50;99.90;;;;;;5045036;28;20454;-52
2021/11/07 04:38:29;;;;;;;3.77;2.53;;;0.40;99.90;;;;;;5045678;28;20481;-52
2021/11/07 04:40:57;;;;;;;3.90;2.90;;;0.40;99.90;;;;;;5042190;28;20500;-52
2021/11/07 04:43:24;;;;;;;4.10;2.60;;;0.40;99.90;;;;;;5050433;28;20485;-52
2021/11/07 04:45:51;;;;;;;5.00;2.73;;;0.40;99.90;;;;;;5050664;28;20459;-52
2021/11/07 04:48:19;;;;;;;4.07;2.63;;;0.30;99.90;;;;;;5042817;28;20462;-52
2021/11/07 04:50:47;;;;;;;2.93;2.30;;;0.10;99.90;;;;;;5050391;28;21002;-51
2021/11/07 04:53:15;;;;;;;3.83;2.37;;;0.10;99.90;;;;;;5042675;28;20450;-52
2021/11/07 04:55:44;;;;;;;2.50;2.30;;;0.10;99.90;;;;;;5050901;28;20458;-52
2021/11/07 04:58:12;;;;;;;2.70;2.00;;;0.10;99.90;;;;;;5041305;28;20470;-52
2021/11/07 05:00:40;;;;;;;2.60;2.20;;;0.20;99.90;;;;;;5050738;28;21002;-52
2021/11/07 05:03:08;;;;;;;2.73;2.07;;;0.30;99.90;;;;;;5050349;28;20486;-52
2021/11/07 05:05:36;;;;;;;3.17;2.37;;;0.40;99.90;;;;;;5050872;28;20526;-52
2021/11/07 05:08:04;;;;;;;2.90;1.97;;;0.30;99.90;;;;;;5046475;28;21003;-52
2021/11/07 05:10:31;;;;;;;1.63;1.50;;;0.30;99.90;;;;;;5048780;28;21236;-52
2021/11/07 05:12:59;;;;;;;3.03;1.97;;;0.40;99.90;;;;;;5050756;28;20446;-51
2021/11/07 05:15:26;;;;;;;3.40;1.70;;;0.40;99.90;;;;;;5051704;28;20499;-52
2021/11/07 05:17:53;;;;;;;1.13;1.03;;;0.50;99.90;;;;;;5054469;28;20470;-52
2021/11/07 05:20:20;;;;;;;2.60;1.10;;;0.60;99.90;;;;;;5053775;28;20459;-52
2021/11/07 05:22:47;;;;;;;1.83;1.20;;;0.70;99.90;;;;;;5053419;28;20866;-52
2021/11/07 05:25:15;;;;;;;1.57;0.90;;;0.70;99.90;;;;;;5035239;28;20508;-52
2021/11/07 05:27:42;;;;;;;1.10;1.00;;;0.80;99.90;;;;;;5054077;28;20478;-52
2021/11/07 05:30:12;;;;;;;1.43;1.20;;;0.80;99.90;;;;;;5049436;28;20892;-52
2021/11/07 05:32:40;;;;;;;1.80;1.10;;;0.90;99.90;;;;;;5052770;28;20844;-52
2021/11/07 05:35:08;;;;;;;1.80;1.17;;;1.10;99.90;;;;;;5053500;28;20520;-52
2021/11/07 05:37:35;;;;;;;2.20;1.40;;;1.30;99.90;;;;;;5054284;28;20468;-52
2021/11/07 05:40:04;;;;;;;2.23;1.40;;;1.30;99.90;;;;;;5053809;28;20502;-52
2021/11/07 05:42:31;;;;;;;2.73;1.23;;;1.30;99.90;;;;;;5053730;28;20483;-52
2021/11/07 05:44:58;;;;;;;3.80;2.00;;;1.40;99.90;;;;;;5053379;28;20525;-52
2021/11/07 05:47:30;;;;;;;2.23;1.83;;;1.40;99.90;;;;;;5053444;28;21000;-52
2021/11/07 05:49:57;;;;;;;1.40;1.17;;;1.50;99.90;;;;;;5053789;28;20446;-52
2021/11/07 05:52:26;;;;;;;1.67;1.57;;;1.50;99.90;;;;;;5053809;28;20450;-52
2021/11/07 05:54:53;;;;;;;3.13;1.50;;;1.30;99.90;;;;;;5052684;28;20451;-52
2021/11/07 05:57:20;;;;;;;4.47;2.17;;;1.20;99.90;;;;;;5053303;28;20473;-52
2021/11/07 05:59:48;;;;;;;2.93;2.37;;;1.30;99.90;;;;;;5053783;28;20452;-52
2021/11/07 06:02:15;;;;;;;6.87;3.13;;;1.20;99.90;;;;;;5050129;28;20481;-54
2021/11/07 06:04:44;;;;;;;2.37;2.10;;;0.80;99.90;;;;;;5049528;28;20455;-54
2021/11/07 06:07:11;;;;;;;4.33;2.10;;;0.80;99.90;;;;;;5050796;28;20516;-53
2021/11/07 06:09:38;;;;;;;3.63;2.47;;;0.70;99.90;;;;;;5045428;28;20563;-55
2021/11/07 06:12:07;;;;;;;3.90;2.80;;;0.60;99.90;;;;;;5047202;28;20451;-53
2021/11/07 06:14:34;;;;;;;5.40;2.83;;;0.70;99.90;;;;;;5048020;28;20489;-54
2021/11/07 06:17:01;;;;;;;4.27;3.37;;;0.80;99.90;;;;;;5044702;28;20486;-54
2021/11/07 06:19:28;;;;;;;3.43;3.13;;;0.80;99.90;;;;;;5044263;28;20553;-55
2021/11/07 06:21:57;;;;;;;4.03;3.07;;;0.80;99.90;;;;;;5044595;28;21067;-55
2021/11/07 06:24:26;;;;;;;5.10;2.70;;;0.40;99.90;;;;;;5044884;28;20528;-54
2021/11/07 06:26:56;;;;;;;4.83;3.50;;;0.30;99.90;;;;;;5043446;28;20513;-54
2021/11/07 06:29:24;;;;;;;3.80;2.77;;;0.30;99.90;;;;;;5044771;28;20514;-54
2021/11/07 06:31:51;;;;;;;3.93;3.13;;;0.40;99.90;;;;;;5046418;28;21023;-54
2021/11/07 06:34:19;;;;;;;6.10;3.20;;;0.50;99.90;;;;;;5044205;28;20472;-54
2021/11/07 06:36:46;;;;;;;3.37;2.90;;;0.50;99.90;;;;;;5044655;28;21265;-55
2021/11/07 06:39:16;;;;;;;3.10;2.80;;;0.60;99.90;;;;;;5047113;28;20539;-54
2021/11/07 06:41:44;;;;;;;3.33;2.63;;;0.60;99.90;;;;;;5043839;28;20474;-54
2021/11/07 06:44:12;;;;;;;4.77;3.10;;;0.50;99.90;;;;;;5045787;28;21035;-55
2021/11/07 06:46:39;;;;;;;4.30;3.13;;;0.40;99.90;;;;;;5040853;28;20476;-54
2021/11/07 06:49:10;;;;;;;6.50;3.13;;;0.40;99.90;;;;;;5043969;28;20474;-55
2021/11/07 06:51:38;;;;;;;6.07;4.07;;;0.30;99.90;;;;;;5043638;28;20465;-53
2021/11/07 06:54:05;;;;;;;6.40;4.03;;;0.20;99.90;;;;;;5045084;28;20474;-55
2021/11/07 06:56:34;;;;;;;6.00;3.20;;;0.20;99.90;;;;;;5043220;28;20984;-55
2021/11/07 06:59:02;;;;;;;5.30;3.67;;;0.30;99.90;;;;;;5043221;28;20462;-54
2021/11/07 07:01:29;;;;;;;4.97;3.20;;;0.60;99.90;;;;;;5044261;28;20461;-56
2021/11/07 07:03:56;;;;;;;6.90;3.50;;;0.60;99.90;;;;;;5042553;28;20493;-55
2021/11/07 07:06:23;;;;;;;5.93;3.93;;;0.90;99.90;;;;;;5043146;28;20494;-54
2021/11/07 07:08:54;;;;;;;4.57;3.50;;;1.10;99.90;;;;;;5045679;28;20623;-54
2021/11/07 07:11:27;;;;;;;4.80;4.17;;;1.30;99.90;;;;;;5042889;28;20466;-54
2021/11/07 07:14:00;;;;;;;6.50;4.37;;;1.40;99.90;;;;;;5043008;28;20458;-54
2021/11/07 07:16:34;;;;;;;6.93;4.70;;;1.50;99.90;;;;;;5050987;28;20493;-55
2021/11/07 07:19:10;;;;;;;7.33;5.10;;;1.40;99.90;;;;;;5049528;28;20498;-54
2021/11/07 07:21:45;;;;;;;10.90;6.03;;;1.40;99.90;;;;;;5045742;28;20499;-55
2021/11/07 07:27:16;;;;;;;9.77;6.30;;;1.30;99.90;;;;;;5044821;28;20471;-55
2021/11/07 07:30:03;;;;;;;7.60;4.70;;;1.40;99.90;;;;;;5046598;28;20500;-54
2021/11/07 07:35:30;;;;;;;5.53;3.40;;;1.50;99.90;;;;;;5008793;28;20572;-54
2021/11/07 07:37:59;;;;;;;4.67;3.27;;;1.50;99.90;;;;;;5004508;28;20540;-54
2021/11/07 07:40:27;;;;;;;4.13;3.20;;;1.60;99.90;;;;;;5024735;28;21024;-55
2021/11/07 07:42:54;;;;;;;6.37;3.57;;;1.70;99.90;;;;;;5046038;28;20485;-55
2021/11/07 07:45:23;;;;;;;4.07;2.87;;;2.00;99.90;;;;;;5051410;28;20451;-54
2021/11/07 07:47:50;;;;;;;4.40;3.07;;;2.10;99.90;;;;;;5047869;28;20487;-54
2021/11/07 07:50:21;;;;;;;6.03;3.10;;;2.20;99.90;;;;;;5050538;28;20987;-56
2021/11/07 07:52:48;;;;;;;4.57;3.10;;;2.40;99.90;;;;;;5048410;28;20490;-54
2021/11/07 07:55:16;;;;;;;6.60;3.43;;;2.70;99.90;;;;;;5049948;28;20471;-55
2021/11/07 07:57:45;;;;;;;4.97;3.27;;;3.00;99.90;;;;;;5040911;28;20533;-56
2021/11/07 08:00:15;;;;;;;7.00;3.93;;;3.30;99.90;;;;;;5046747;28;20854;-54
2021/11/07 08:02:43;;;;;;;7.00;4.40;;;3.50;99.90;;;;;;5049001;28;20497;-55
2021/11/07 08:05:12;;;;;;;4.90;3.60;;;3.50;99.90;;;;;;5047136;28;20537;-56
2021/11/07 08:07:41;;;;;;;7.50;3.37;;;3.50;99.90;;;;;;5047296;28;20553;-55
2021/11/07 08:10:10;;;;;;;3.90;2.90;;;3.60;99.90;;;;;;5047978;28;20494;-54
2021/11/07 08:12:39;;;;;;;4.20;2.20;;;3.50;99.90;;;;;;5047297;28;20814;-55
2021/11/07 08:15:07;;;;;;;3.57;2.43;;;3.50;99.90;;;;;;5051117;28;20908;-54
2021/11/07 08:17:34;;;;;;;3.77;2.30;;;3.70;99.90;;;;;;5048750;28;20486;-55
2021/11/07 08:20:05;;;;;;;3.80;2.60;;;3.90;99.90;;;;;;5048155;28;20468;-55
2021/11/07 08:22:32;;;;;;;3.03;2.33;;;4.10;99.90;;;;;;5045065;28;20489;-55
2021/11/07 08:25:05;;;;;;;5.20;2.83;;;4.30;99.90;;;;;;5043333;28;20586;-55
2021/11/07 08:27:32;;;;;;;2.40;2.20;;;4.30;99.90;;;;;;5049211;28;20480;-55
2021/11/07 08:29:59;;;;;;;3.13;2.23;;;4.50;99.90;;;;;;5050414;28;20517;-55
2021/11/07 08:32:29;;;;;;;2.30;2.10;;;4.80;99.90;;;;;;5047051;28;20466;-54
2021/11/07 08:34:56;;;;;;;2.73;2.27;;;5.00;99.90;;;;;;5046506;28;20455;-55
2021/11/07 08:37:34;;;;;;;3.10;2.60;;;5.00;99.90;;;;;;5047005;28;20488;-54
2021/11/07 08:40:06;;;;;;;2.97;2.50;;;4.90;99.90;;;;;;5045927;28;20459;-54
2021/11/07 08:42:37;;;;;;;4.30;2.40;;;5.30;99.90;;;;;;5045156;28;20996;-55
2021/11/07 09:01:41;;;;;;;1.90;1.53;;;8.80;99.90;;;;;;5047876;28;21026;-56
2021/11/07 09:04:21;;;;;;;1.73;1.53;;;8.70;99.90;;;;;;5050678;28;20497;-57
2021/11/07 09:07:01;;;;;;;2.20;2.00;;;8.70;99.90;;;;;;5046310;28;20490;-55
2021/11/07 09:09:33;;;;;;;3.93;2.30;;;8.70;99.90;;;;;;5053791;28;20517;-57
2021/11/07 09:12:01;;;;;;;2.50;2.00;;;8.90;99.90;;;;;;5053228;28;20569;-56
2021/11/07 09:14:30;;;;;;;1.90;1.80;;;9.10;99.90;;;;;;5054369;28;20522;-55
2021/11/07 09:16:58;;;;;;;2.03;1.70;;;9.40;99.90;;;;;;5053519;28;20562;-56
2021/11/07 09:19:27;;;;;;;1.90;1.70;;;9.30;99.90;;;;;;5053479;28;20496;-56
2021/11/07 09:21:59;;;;;;;1.80;1.70;;;9.10;99.90;;;;;;5053423;28;20466;-53
2021/11/07 09:24:31;;;;;;;3.37;1.80;;;9.40;99.90;;;;;;5053898;28;20487;-53
2021/11/07 09:27:05;;;;;;;1.80;1.70;;;9.90;99.90;;;;;;5034277;28;20465;-55
2021/11/07 09:29:43;;;;;;;1.67;1.57;;;10.00;99.90;;;;;;5052211;28;20452;-56
2021/11/07 09:32:24;;;;;;;1.97;1.70;;;10.20;99.90;;;;;;5053137;28;20466;-56
2021/11/07 09:34:55;;;;;;;1.60;1.50;;;10.00;99.90;;;;;;5052572;28;20459;-55
2021/11/07 09:37:38;;;;;;;2.07;1.83;;;9.80;99.90;;;;;;5053447;28;20475;-55
2021/11/07 09:40:09;;;;;;;5.63;2.27;;;9.50;99.90;;;;;;5052006;28;20463;-56
2021/11/07 09:42:53;;;;;;;2.90;1.40;;;9.20;99.90;;;;;;5052760;28;20455;-56
2021/11/07 09:45:26;;;;;;;1.20;1.03;;;8.90;99.90;;;;;;5052941;28;21003;-55
2021/11/07 09:47:56;;;;;;;3.23;1.60;;;8.50;99.90;;;;;;5048375;28;20551;-56
2021/11/07 09:50:24;;;;;;;2.90;1.93;;;8.30;99.90;;;;;;5047253;28;20444;-58
2021/11/07 09:52:53;;;;;;;2.17;1.40;;;8.20;99.90;;;;;;5061650;28;20964;-57
2021/11/07 09:55:22;;;;;;;2.20;1.63;;;8.40;99.90;;;;;;5052794;28;20964;-56
2021/11/07 09:57:53;;;;;;;1.53;1.43;;;8.80;99.90;;;;;;5051270;28;20511;-56
2021/11/07 10:00:24;;;;;;;3.40;1.67;;;8.60;99.90;;;;;;5053295;28;20462;-55
2021/11/07 10:02:51;;;;;;;2.20;1.70;;;8.60;99.90;;;;;;5048959;28;20474;-55
2021/11/07 10:05:19;;;;;;;2.27;1.70;;;8.90;99.90;;;;;;5050820;28;20467;-54
2021/11/07 10:07:56;;;;;;;3.33;1.77;;;8.70;99.90;;;;;;5046386;28;20475;-56
2021/11/07 10:10:24;;;;;;;1.60;1.50;;;8.60;99.90;;;;;;5050184;28;20455;-55
2021/11/07 10:12:56;;;;;;;1.53;1.43;;;8.60;99.90;;;;;;5049790;28;20456;-56
2021/11/07 10:15:27;;;;;;;2.30;1.60;;;8.80;99.90;;;;;;5052887;28;20458;-55
2021/11/07 10:17:57;;;;;;;1.90;1.70;;;8.60;99.90;;;;;;5052627;28;20502;-56
2021/11/07 10:20:28;;;;;;;2.20;1.40;;;8.40;99.90;;;;;;5051695;28;20461;-55
2021/11/07 10:23:00;;;;;;;1.97;1.57;;;8.40;99.90;;;;;;5052569;28;21014;-55
2021/11/07 10:25:36;;;;;;;1.40;1.30;;;8.30;99.90;;;;;;5051816;28;20451;-55
2021/11/07 10:28:15;;;;;;;1.43;1.33;;;8.20;99.90;;;;;;5034461;28;20978;-55
2021/11/07 10:30:46;;;;;;;1.93;1.60;;;8.20;99.90;;;;;;5052973;28;20451;-56
2021/11/07 10:33:23;;;;;;;1.63;1.40;;;8.00;99.90;;;;;;5047642;28;20837;-55
2021/11/07 10:36:20;;;;;;;1.90;1.40;;;7.50;99.90;;;;;;5052456;28;20451;-55
2021/11/07 10:39:07;;;;;;;1.50;1.20;;;7.30;99.90;;;;;;5050882;28;21662;-55
2021/11/07 10:47:31;;;;;;;1.30;1.10;;;8.20;99.90;;;;;;5044865;28;20467;-55
2021/11/07 10:52:47;;;;;;;3.87;1.50;;;8.30;99.90;;;;;;5049298;28;20865;-55
2021/11/07 10:55:19;;;;;;;1.90;1.20;;;8.40;99.90;;;;;;5050811;28;20487;-55
2021/11/07 10:57:48;;;;;;;1.97;1.27;;;8.50;99.90;;;;;;5052537;28;21066;-56
2021/11/07 11:00:21;;;;;;;1.53;1.23;;;8.70;99.90;;;;;;5051791;28;20457;-55
2021/11/07 11:02:50;;;;;;;2.23;1.50;;;8.90;99.90;;;;;;5051923;28;20477;-55
2021/11/07 11:05:19;;;;;;;2.07;0.97;;;9.00;99.90;;;;;;5051960;28;20494;-55
2021/11/07 11:07:54;;;;;;;2.10;1.47;;;9.20;99.90;;;;;;5051654;28;20879;-54
2021/11/07 11:10:25;;;;;;;1.57;1.40;;;9.10;99.90;;;;;;5050397;28;20505;-54
2021/11/07 11:13:06;;;;;;;1.43;1.33;;;9.10;99.90;;;;;;5051449;28;20444;-55
2021/11/07 11:15:42;;;;;;;1.60;1.20;;;9.40;99.90;;;;;;5046075;28;20455;-55
2021/11/07 11:18:29;;;;;;;1.10;1.00;;;9.00;99.90;;;;;;5051380;28;20471;-54
2021/11/07 11:21:16;;;;;;;1.67;1.10;;;9.20;99.90;;;;;;5036910;28;20535;-55
2021/11/07 11:23:54;;;;;;;1.20;1.07;;;9.40;99.90;;;;;;5051998;28;20494;-56
2021/11/07 11:26:37;;;;;;;1.10;0.90;;;9.30;99.90;;;;;;5051947;28;20565;-54
2021/11/07 11:29:20;;;;;;;1.17;0.90;;;9.40;99.90;;;;;;5051271;28;20469;-55
2021/11/07 11:31:55;;;;;;;1.50;1.13;;;9.40;99.90;;;;;;5051529;28;20506;-55
2021/11/07 11:34:26;;;;;;;0.90;0.90;;;9.20;99.90;;;;;;5050485;28;20509;-55
2021/11/07 11:36:59;;;;;;;2.40;1.00;;;9.20;99.90;;;;;;5041094;28;20522;-56
2021/11/07 11:39:30;;;;;;;0.80;0.80;;;9.50;99.90;;;;;;5051752;28;20513;-54
2021/11/07 11:42:02;;;;;;;1.20;1.10;;;9.60;99.90;;;;;;5049393;28;20443;-56
2021/11/07 11:44:30;;;;;;;1.40;1.10;;;9.50;99.90;;;;;;5051480;28;21023;-55
2021/11/07 11:47:16;;;;;;;1.30;1.03;;;9.60;99.90;;;;;;5048032;28;20472;-54
2021/11/07 11:50:10;;;;;;;1.33;1.00;;;9.50;99.90;;;;;;5047309;28;20502;-55
2021/11/07 11:52:45;;;;;;;1.07;0.97;;;9.50;99.90;;;;;;5065124;28;20456;-56
2021/11/07 11:55:29;;;;;;;1.20;0.80;;;9.60;99.90;;;;;;5049933;28;20447;-55
2021/11/07 12:00:48;;;;;;;1.07;0.97;;;9.50;99.90;;;;;;5029785;28;20441;-53
2021/11/07 12:03:38;;;;;;;1.20;1.10;;;9.50;99.90;;;;;;5046794;28;20456;-54
2021/11/07 12:06:23;;;;;;;1.40;1.10;;;9.60;99.90;;;;;;5051304;28;20580;-55
2021/11/07 12:09:18;;;;;;;1.00;0.90;;;9.70;99.90;;;;;;5051683;28;20459;-55
2021/11/07 12:11:50;;;;;;;1.30;0.83;;;9.80;99.90;;;;;;5050153;28;20800;-54
2021/11/07 12:14:21;;;;;;;1.20;1.10;;;10.10;99.90;;;;;;5051059;28;20459;-54
2021/11/07 12:16:55;;;;;;;2.33;1.10;;;10.10;99.90;;;;;;5038249;28;20474;-56
2021/11/07 12:19:31;;;;;;;1.30;0.80;;;10.00;99.90;;;;;;5049093;28;20542;-54
2021/11/07 12:22:02;;;;;;;1.00;0.90;;;10.00;99.90;;;;;;5050278;28;20479;-57
2021/11/07 12:24:32;;;;;;;0.80;0.80;;;10.10;99.90;;;;;;5042990;28;20503;-55
2021/11/07 12:27:22;;;;;;;1.80;0.97;;;10.10;99.90;;;;;;5053594;28;20534;-55
2021/11/07 12:29:52;;;;;;;1.87;1.20;;;10.00;99.90;;;;;;5048690;28;21022;-54
2021/11/07 12:32:20;;;;;;;1.60;0.80;;;10.10;99.90;;;;;;5050285;28;20471;-57
2021/11/07 12:35:06;;;;;;;1.20;1.03;;;10.10;99.90;;;;;;5053767;28;20825;-55
2021/11/07 12:41:01;;;;;;;1.20;1.10;;;10.10;99.90;;;;;;5015065;28;20914;-54
2021/11/07 12:43:40;;;;;;;1.50;1.03;;;10.20;99.90;;;;;;5047672;28;20837;-52
2021/11/07 12:46:36;;;;;;;0.93;0.77;;;10.10;99.90;;;;;;5054584;28;20451;-52
2021/11/07 12:49:06;;;;;;;1.53;1.43;;;10.00;99.90;;;;;;5055137;28;20522;-52
2021/11/07 12:51:40;;;;;;;1.20;1.03;;;9.90;99.90;;;;;;5049595;28;20832;-51
2021/11/07 12:54:16;;;;;;;1.37;1.23;;;9.80;99.90;;;;;;5053159;28;20451;-53
2021/11/07 12:56:59;;;;;;;1.20;1.07;;;9.90;99.90;;;;;;5054502;28;20517;-53
2021/11/07 12:59:32;;;;;;;1.77;1.27;;;10.10;99.90;;;;;;5051177;28;20455;-52
2021/11/07 13:02:16;;;;;;;1.40;0.97;;;10.20;99.90;;;;;;5054711;28;20444;-52
2021/11/07 13:04:55;;;;;;;3.17;1.40;;;10.30;99.90;;;;;;5054288;28;20514;-53
2021/11/07 13:07:30;;;;;;;2.20;1.30;;;10.10;99.90;;;;;;5046145;28;20483;-52
2021/11/07 13:10:00;;;;;;;1.20;1.10;;;10.00;99.90;;;;;;5049374;28;20442;-54
2021/11/07 13:12:34;;;;;;;1.50;1.20;;;10.00;99.90;;;;;;5053936;28;20501;-56
2021/11/07 13:15:27;;;;;;;1.40;1.30;;;10.10;99.90;;;;;;5054304;28;20448;-53
2021/11/07 13:21:23;;;;;;;1.53;1.10;;;10.10;99.90;;;;;;5053865;28;20521;-54
2021/11/07 13:24:12;;;;;;;5.10;3.90;;;9.70;99.90;;;;;;5053516;28;20479;-53
2021/11/07 13:26:51;;;;;;;6.43;4.60;;;9.40;99.90;;;;;;5053742;28;20521;-52
2021/11/07 13:29:29;;;;;;;8.30;5.40;;;9.10;99.90;;;;;;5053321;28;20801;-53
2021/11/07 13:32:13;;;;;;;6.67;4.40;;;8.70;99.90;;;;;;5051760;28;20508;-55
2021/11/07 13:34:54;;;;;;;7.10;4.77;;;8.70;99.90;;;;;;5052084;28;20530;-53
2021/11/07 13:37:26;;;;;;;10.63;5.17;;;8.70;99.90;;;;;;5047866;28;20471;-53
2021/11/07 13:40:08;;;;;;;6.50;4.90;;;8.80;99.90;;;;;;5048417;28;20458;-52
2021/11/07 13:42:36;;;;;;;6.13;4.30;;;8.90;99.90;;;;;;5054173;28;20860;-51
2021/11/07 13:45:07;;;;;;;6.87;4.87;;;9.00;99.90;;;;;;5052212;28;20566;-51
2021/11/07 13:47:37;;;;;;;5.70;4.07;;;9.10;99.90;;;;;;5053084;28;20472;-53
2021/11/07 13:50:08;;;;;;;6.40;4.00;;;8.90;99.90;;;;;;5054400;28;20816;-52
2021/11/07 13:52:36;;;;;;;6.40;4.30;;;9.00;99.90;;;;;;5040072;28;20873;-53
2021/11/07 13:55:16;;;;;;;6.50;3.80;;;9.10;99.90;;;;;;5052163;28;20444;-52